Salt Lake City, Utah
Traffic Map
Current Weather Conditions
Salt Lake City, Utah
Clear
Clear
11°
Feels Like: 11°
Wind Chill: 11° Ceiling: Unl
Heat Index: 11° Visibility: 10mi
Dew Point: -1° Wind: 5mph
Humidity: 43% Direction: 150° (SSE)
Pressure: 30.19in Gusts: 0mph
Raw Report DataKSLC 300353Z 15004KT 10SM CLR 11/M01 A3019 RMK AO2 SLP206 T01111011 $
Traffic Incident Summary
Active as of:
Severity:
Category:
InformationThere was an issue retrieving the traffic information for this location. Please try a different location or try again shortly.
Advertisements
Track Severe Weather on mobile